Time;durP1;ratioP1;P1;durP2;ratioP2;P2;SDS_P1;SDS_P2;PMS_P1;PMS_P2;Temp;Humidity;BMP_temperature;BMP_pressure;BME280_temperature;BME280_humidity;BME280_pressure;Samples;Min_cycle;Max_cycle;Signal;HPM_P1;HPM_P2
2022/12/24 00:00:01;;;;;;;8.30;2.70;;;;;;;9.78;100.00;99372.31;5010840;28;20220;-64
2022/12/24 00:02:26;;;;;;;11.03;2.87;;;;;;;9.83;100.00;99375.41;4991295;28;20230;-63
2022/12/24 00:04:52;;;;;;;10.53;2.73;;;;;;;9.82;100.00;99365.22;5009415;28;20183;-64
2022/12/24 00:07:17;;;;;;;9.77;2.97;;;;;;;9.89;100.00;99370.81;5006863;28;20190;-63
2022/12/24 00:09:42;;;;;;;13.70;2.50;;;;;;;9.94;100.00;99369.59;5013103;28;20234;-63
2022/12/24 00:12:08;;;;;;;10.90;2.40;;;;;;;9.87;100.00;99380.38;5004790;28;20693;-65
2022/12/24 00:14:33;;;;;;;10.50;3.77;;;;;;;9.74;100.00;99370.88;5012525;28;20310;-65
2022/12/24 00:16:58;;;;;;;12.33;2.60;;;;;;;9.62;100.00;99369.88;5002293;28;20311;-64
2022/12/24 00:19:24;;;;;;;9.97;2.87;;;;;;;9.74;100.00;99380.31;5027256;28;20556;-64
2022/12/24 00:21:49;;;;;;;11.70;3.13;;;;;;;9.61;100.00;99382.81;5002731;28;20223;-64
2022/12/24 00:24:14;;;;;;;8.67;2.63;;;;;;;9.72;100.00;99392.44;5014182;28;20187;-66
2022/12/24 00:26:39;;;;;;;11.83;2.50;;;;;;;9.62;100.00;99392.16;5014065;28;20175;-67
2022/12/24 00:29:05;;;;;;;15.33;3.83;;;;;;;9.63;100.00;99391.25;5006041;28;20643;-66
2022/12/24 00:31:31;;;;;;;9.23;2.83;;;;;;;9.65;100.00;99405.66;5015852;28;20217;-66
2022/12/24 00:33:56;;;;;;;11.57;2.77;;;;;;;9.62;100.00;99402.44;5029018;28;20296;-66
2022/12/24 00:36:22;;;;;;;17.10;4.30;;;;;;;9.60;100.00;99406.84;5013676;28;20228;-67
2022/12/24 00:38:47;;;;;;;14.77;3.33;;;;;;;9.58;100.00;99412.06;5014213;28;20186;-66
2022/12/24 00:41:23;;;;;;;10.27;2.70;;;;;;;9.61;100.00;99405.91;5012561;28;20288;-67
2022/12/24 00:43:53;;;;;;;9.03;3.07;;;;;;;9.59;100.00;99410.31;5018942;28;20528;-66
2022/12/24 00:46:19;;;;;;;17.50;3.10;;;;;;;9.61;100.00;99406.75;5013249;28;20206;-64
2022/12/24 00:48:44;;;;;;;8.53;2.57;;;;;;;9.68;100.00;99410.56;5014003;28;20284;-65
2022/12/24 00:51:09;;;;;;;6.70;2.30;;;;;;;9.61;100.00;99411.06;5012236;28;20244;-65
2022/12/24 00:53:34;;;;;;;9.83;2.73;;;;;;;9.56;100.00;99415.66;5020640;28;20657;-65
2022/12/24 00:56:00;;;;;;;9.97;2.97;;;;;;;9.66;100.00;99416.72;5013155;28;20183;-65
2022/12/24 00:58:25;;;;;;;12.23;2.83;;;;;;;9.59;100.00;99416.28;5013519;28;20179;-65
2022/12/24 01:00:50;;;;;;;13.27;3.13;;;;;;;9.53;100.00;99419.25;5009986;28;20226;-65
2022/12/24 01:03:15;;;;;;;13.87;3.13;;;;;;;9.59;100.00;99426.56;5022667;28;20626;-65
2022/12/24 01:05:41;;;;;;;14.70;3.03;;;;;;;9.58;100.00;99432.63;5028612;28;20179;-65
2022/12/24 01:08:06;;;;;;;14.27;3.00;;;;;;;9.53;100.00;99442.34;5012897;28;20198;-65
2022/12/24 01:10:31;;;;;;;10.03;2.70;;;;;;;9.49;100.00;99443.47;5007464;28;20242;-65
2022/12/24 01:13:00;;;;;;;13.23;3.90;;;;;;;9.48;100.00;99439.25;5024634;28;20316;-63
2022/12/24 01:15:26;;;;;;;11.87;3.03;;;;;;;9.43;100.00;99444.63;5013351;28;20195;-68
2022/12/24 01:17:51;;;;;;;11.70;3.17;;;;;;;9.36;100.00;99454.47;5012706;28;20187;-64
2022/12/24 01:20:17;;;;;;;13.47;3.07;;;;;;;9.37;100.00;99458.66;5004976;28;20186;-63
2022/12/24 01:22:42;;;;;;;12.67;2.90;;;;;;;9.31;100.00;99461.59;5025071;28;20815;-65
2022/12/24 01:25:08;;;;;;;12.10;2.83;;;;;;;9.26;100.00;99466.16;5010975;28;20640;-64
2022/12/24 01:27:34;;;;;;;15.90;3.17;;;;;;;9.24;100.00;99468.03;5011283;28;20182;-65
2022/12/24 01:29:59;;;;;;;14.03;3.17;;;;;;;9.33;100.00;99471.78;5013138;28;20214;-64
2022/12/24 01:32:24;;;;;;;8.97;3.33;;;;;;;9.34;100.00;99471.69;5002057;28;20700;-64
2022/12/24 01:34:49;;;;;;;15.33;3.87;;;;;;;9.41;100.00;99479.03;5013101;28;20234;-65
2022/12/24 01:37:15;;;;;;;9.70;3.53;;;;;;;9.38;100.00;99492.88;5012375;28;20175;-63
2022/12/24 01:39:40;;;;;;;12.80;2.90;;;;;;;9.44;100.00;99484.81;5008439;28;20270;-64
2022/12/24 01:45:37;;;;;;;10.10;2.70;;;;;;;9.33;100.00;99482.88;5013021;28;20298;-64
2022/12/24 01:48:04;;;;;;;13.57;3.27;;;;;;;9.31;100.00;99497.53;5012236;28;20187;-64
2022/12/24 01:50:30;;;;;;;16.60;3.77;;;;;;;9.38;100.00;99500.56;5005986;28;20291;-65
2022/12/24 01:52:56;;;;;;;11.80;2.90;;;;;;;9.43;100.00;99513.13;5011423;28;20179;-64
2022/12/24 01:55:23;;;;;;;15.43;3.47;;;;;;;9.36;100.00;99522.94;5011208;28;20207;-64
2022/12/24 01:57:54;;;;;;;10.43;3.07;;;;;;;9.29;100.00;99521.63;5010785;28;20627;-65
2022/12/24 02:00:20;;;;;;;14.77;3.37;;;;;;;9.25;100.00;99520.97;5004491;28;20202;-64
2022/12/24 02:02:49;;;;;;;17.73;4.20;;;;;;;9.20;100.00;99516.13;5024866;28;20186;-64
2022/12/24 02:05:33;;;;;;;8.20;3.03;;;;;;;9.19;100.00;99529.03;5011059;28;20267;-64
2022/12/24 02:08:00;;;;;;;9.37;3.13;;;;;;;9.33;100.00;99538.53;5011525;28;20522;-65
2022/12/24 02:10:26;;;;;;;13.40;3.20;;;;;;;9.29;100.00;99537.88;5005391;28;20233;-64
2022/12/24 02:12:51;;;;;;;13.30;3.50;;;;;;;9.27;100.00;99551.72;5023872;28;20198;-64
2022/12/24 02:15:19;;;;;;;14.53;3.23;;;;;;;9.02;100.00;99540.28;5010933;28;20900;-64
2022/12/24 02:17:52;;;;;;;16.80;3.43;;;;;;;9.06;100.00;99535.81;5010333;28;20195;-64
2022/12/24 02:20:35;;;;;;;12.17;3.43;;;;;;;9.09;100.00;99545.88;5004120;28;20187;-64
2022/12/24 02:23:22;;;;;;;14.20;3.13;;;;;;;9.00;100.00;99545.47;5006622;28;20266;-65
2022/12/24 02:26:05;;;;;;;12.60;3.37;;;;;;;9.10;100.00;99543.22;5007997;28;20183;-64
2022/12/24 02:28:59;;;;;;;13.50;3.07;;;;;;;9.06;100.00;99558.91;5010834;28;20273;-64
2022/12/24 02:31:56;;;;;;;13.23;3.20;;;;;;;9.14;100.00;99556.69;5011358;28;20597;-64
2022/12/24 02:34:44;;;;;;;9.67;2.50;;;;;;;9.28;100.00;99563.59;5000713;28;20696;-65
2022/12/24 02:37:24;;;;;;;10.87;2.87;;;;;;;9.36;100.00;99556.28;5009037;28;20638;-65
2022/12/24 02:39:58;;;;;;;9.57;2.93;;;;;;;9.37;100.00;99548.50;5010870;28;20205;-65
2022/12/24 02:42:31;;;;;;;14.30;3.60;;;;;;;9.44;100.00;99555.84;4999131;28;20284;-66
2022/12/24 02:45:21;;;;;;;19.77;4.20;;;;;;;9.41;100.00;99571.44;5010576;28;20579;-66
2022/12/24 02:47:48;;;;;;;11.03;3.07;;;;;;;9.43;100.00;99567.03;5002920;28;20194;-65
2022/12/24 02:50:16;;;;;;;9.83;3.10;;;;;;;9.30;100.00;99590.84;5001656;28;20187;-65
2022/12/24 02:52:44;;;;;;;8.67;2.67;;;;;;;9.21;100.00;99593.94;5019955;28;20187;-65
2022/12/24 02:55:17;;;;;;;16.87;3.77;;;;;;;9.14;100.00;99593.47;5009457;28;20226;-65
2022/12/24 02:57:58;;;;;;;12.03;2.97;;;;;;;9.27;100.00;99587.63;5011208;28;20784;-66
2022/12/24 03:00:25;;;;;;;9.10;2.73;;;;;;;9.08;100.00;99596.38;4991251;28;20230;-65
2022/12/24 03:03:01;;;;;;;14.87;2.90;;;;;;;9.10;100.00;99604.78;5000072;28;20190;-65
2022/12/24 03:05:39;;;;;;;8.67;2.50;;;;;;;9.07;100.00;99604.13;5007129;28;20186;-65
2022/12/24 03:08:15;;;;;;;11.17;2.43;;;;;;;9.05;100.00;99604.25;5007866;28;20187;-65
2022/12/24 03:10:55;;;;;;;8.87;3.07;;;;;;;9.14;100.00;99602.88;4999666;28;20246;-65
2022/12/24 03:13:22;;;;;;;8.03;2.33;;;;;;;9.15;100.00;99607.97;4993965;28;20204;-65
2022/12/24 03:15:50;;;;;;;9.47;2.90;;;;;;;9.17;100.00;99603.53;5003770;28;20229;-66
2022/12/24 03:18:23;;;;;;;10.87;2.50;;;;;;;9.08;100.00;99606.66;5010206;28;20172;-65
2022/12/24 03:21:15;;;;;;;11.03;2.50;;;;;;;9.10;100.00;99611.69;5002414;28;20339;-65
2022/12/24 03:23:40;;;;;;;9.00;2.70;;;;;;;9.10;100.00;99604.78;5007006;28;20274;-65
2022/12/24 03:26:09;;;;;;;9.90;2.50;;;;;;;9.26;100.00;99604.75;5009010;28;20257;-65
2022/12/24 03:28:37;;;;;;;8.90;2.70;;;;;;;9.30;100.00;99619.09;5007009;28;20698;-66
2022/12/24 03:31:05;;;;;;;11.00;2.70;;;;;;;9.18;100.00;99624.91;5001959;28;20234;-66
2022/12/24 03:33:30;;;;;;;12.77;3.10;;;;;;;9.21;100.00;99624.72;5009877;28;20218;-65
2022/12/24 03:35:55;;;;;;;9.73;3.00;;;;;;;9.38;100.00;99634.03;5010438;28;20346;-66
2022/12/24 03:38:20;;;;;;;15.90;2.87;;;;;;;9.30;100.00;99638.78;5026501;28;20596;-66
2022/12/24 03:40:46;;;;;;;10.47;2.93;;;;;;;9.46;100.00;99649.00;4999518;28;20222;-65
2022/12/24 03:43:11;;;;;;;12.87;3.07;;;;;;;9.33;100.00;99641.19;5016241;28;20183;-65
2022/12/24 03:45:37;;;;;;;14.43;3.30;;;;;;;9.41;100.00;99644.13;5014829;28;20171;-65
2022/12/24 03:48:02;;;;;;;17.30;3.57;;;;;;;9.49;100.00;99643.72;5029479;28;20244;-65
2022/12/24 03:50:27;;;;;;;13.93;3.43;;;;;;;9.68;100.00;99640.91;5008202;28;20293;-65
2022/12/24 03:52:54;;;;;;;11.73;3.07;;;;;;;9.68;100.00;99644.28;5020297;28;20191;-65
2022/12/24 03:55:19;;;;;;;10.87;2.40;;;;;;;9.62;100.00;99647.19;5009360;28;20195;-65
2022/12/24 03:57:44;;;;;;;13.03;2.97;;;;;;;9.66;100.00;99653.84;5006320;28;20228;-65
2022/12/24 04:00:10;;;;;;;22.87;3.73;;;;;;;9.53;100.00;99650.31;4995366;28;20207;-65
2022/12/24 04:02:36;;;;;;;10.13;2.87;;;;;;;9.50;100.00;99646.19;5028922;28;20179;-65
2022/12/24 04:05:01;;;;;;;12.33;3.07;;;;;;;9.48;100.00;99652.31;5014723;28;20194;-65
2022/12/24 04:07:26;;;;;;;11.90;3.23;;;;;;;9.44;100.00;99653.38;5014702;28;20186;-65
2022/12/24 04:09:52;;;;;;;9.90;3.10;;;;;;;9.25;100.00;99661.31;5014265;28;20663;-66
2022/12/24 04:12:17;;;;;;;13.10;4.30;;;;;;;9.18;100.00;99665.97;5019853;28;20268;-65
2022/12/24 04:14:42;;;;;;;16.00;3.43;;;;;;;9.24;100.00;99670.75;5014573;28;20215;-64
2022/12/24 04:17:07;;;;;;;15.37;3.10;;;;;;;9.24;100.00;99659.66;5019783;28;20305;-65
2022/12/24 04:19:33;;;;;;;12.43;3.37;;;;;;;9.45;100.00;99666.16;5014749;28;20237;-65
2022/12/24 04:21:59;;;;;;;11.57;3.57;;;;;;;9.50;100.00;99671.00;5018869;28;20650;-67
2022/12/24 04:24:24;;;;;;;10.93;3.57;;;;;;;9.59;100.00;99659.38;5015281;28;20190;-65
2022/12/24 04:26:49;;;;;;;11.13;3.07;;;;;;;9.43;100.00;99672.31;5013891;28;20666;-66
2022/12/24 04:29:14;;;;;;;10.00;2.67;;;;;;;9.40;100.00;99663.00;5014321;28;20638;-65
2022/12/24 04:31:40;;;;;;;12.27;4.20;;;;;;;9.44;100.00;99666.22;5016674;28;20222;-65
2022/12/24 04:34:05;;;;;;;12.30;3.40;;;;;;;9.32;100.00;99663.44;5016378;28;20280;-65
2022/12/24 04:36:30;;;;;;;12.80;3.07;;;;;;;9.26;100.00;99660.41;5013915;28;20183;-65
2022/12/24 04:38:56;;;;;;;12.33;3.30;;;;;;;9.26;100.00;99668.09;5012931;28;20182;-65
2022/12/24 04:41:22;;;;;;;15.53;3.90;;;;;;;9.25;100.00;99669.00;5014554;28;20233;-65
2022/12/24 04:43:48;;;;;;;14.30;3.27;;;;;;;9.24;100.00;99675.91;5009237;28;20202;-64
2022/12/24 04:46:17;;;;;;;13.73;3.57;;;;;;;9.01;100.00;99662.59;5021111;28;20625;-65
2022/12/24 04:48:43;;;;;;;16.33;3.50;;;;;;;8.95;100.00;99678.31;5012145;28;20211;-64
2022/12/24 04:51:10;;;;;;;16.73;3.23;;;;;;;9.01;100.00;99672.03;5005523;28;20230;-65
2022/12/24 04:53:36;;;;;;;13.07;3.20;;;;;;;9.04;100.00;99680.38;5004796;28;20210;-64
2022/12/24 04:56:02;;;;;;;12.57;3.10;;;;;;;8.90;100.00;99680.31;5008718;28;20187;-64
2022/12/24 04:58:28;;;;;;;11.53;3.37;;;;;;;8.82;100.00;99682.44;5011451;28;20282;-64
2022/12/24 05:00:53;;;;;;;12.97;3.87;;;;;;;8.86;100.00;99681.41;5001943;28;20239;-65
2022/12/24 05:03:19;;;;;;;12.07;3.17;;;;;;;8.85;100.00;99679.72;5013655;28;20190;-64
2022/12/24 05:05:45;;;;;;;13.20;2.80;;;;;;;8.78;100.00;99674.13;5014245;28;20281;-65
2022/12/24 05:08:10;;;;;;;13.00;2.87;;;;;;;8.78;100.00;99668.16;5011487;28;20633;-64
2022/12/24 05:10:35;;;;;;;12.30;2.93;;;;;;;8.75;100.00;99676.03;5007757;28;20265;-64
2022/12/24 05:13:01;;;;;;;9.70;2.57;;;;;;;8.81;100.00;99673.13;5023701;28;20634;-64
2022/12/24 05:15:26;;;;;;;11.97;2.70;;;;;;;8.81;100.00;99686.75;5013490;28;20257;-65
2022/12/24 05:17:51;;;;;;;16.07;4.67;;;;;;;8.79;100.00;99691.13;5012792;28;20533;-65
2022/12/24 05:20:17;;;;;;;13.43;3.20;;;;;;;8.85;100.00;99697.69;5003954;28;20186;-64
2022/12/24 05:28:16;;;;;;;10.93;3.07;;;;;;;9.14;100.00;99703.81;5013455;28;20191;-64
2022/12/24 05:30:42;;;;;;;15.90;3.33;;;;;;;9.18;100.00;99699.34;5007015;28;20222;-65
2022/12/24 05:33:07;;;;;;;12.97;3.30;;;;;;;9.02;100.00;99697.59;5007890;28;20338;-64
2022/12/24 05:35:33;;;;;;;15.00;3.20;;;;;;;9.02;100.00;99696.78;5024529;28;20214;-65
2022/12/24 05:37:58;;;;;;;11.17;3.03;;;;;;;9.00;100.00;99701.97;5002796;28;20523;-65
2022/12/24 05:40:23;;;;;;;11.47;2.80;;;;;;;9.00;100.00;99696.03;4998595;28;20242;-65
2022/12/24 05:42:49;;;;;;;12.00;2.97;;;;;;;9.07;100.00;99710.19;5019233;28;20283;-65
2022/12/24 05:45:14;;;;;;;15.30;3.90;;;;;;;9.06;100.00;99713.66;5008861;28;20194;-64
2022/12/24 05:47:40;;;;;;;19.13;3.40;;;;;;;9.15;100.00;99702.91;5012719;28;20187;-65
2022/12/24 05:50:06;;;;;;;11.13;3.53;;;;;;;9.01;100.00;99713.09;5000736;28;20195;-65
2022/12/24 05:52:31;;;;;;;11.83;3.37;;;;;;;9.12;100.00;99707.38;5011487;28;20602;-65
2022/12/24 05:54:56;;;;;;;9.00;3.10;;;;;;;9.01;100.00;99701.06;5012653;28;20653;-65
2022/12/24 05:57:21;;;;;;;16.47;3.87;;;;;;;9.06;100.00;99705.94;5012279;28;20190;-65
2022/12/24 05:59:48;;;;;;;9.70;2.90;;;;;;;9.05;100.00;99714.56;5012680;28;20235;-64
2022/12/24 06:02:13;;;;;;;15.53;3.20;;;;;;;8.84;100.00;99714.81;5017622;28;20591;-65
2022/12/24 06:04:38;;;;;;;9.43;3.57;;;;;;;8.93;100.00;99728.03;5011802;28;20206;-64
2022/12/24 06:07:03;;;;;;;12.03;3.30;;;;;;;8.94;100.00;99720.25;5012080;28;20214;-65
2022/12/24 06:09:29;;;;;;;13.03;3.30;;;;;;;8.86;100.00;99722.44;5012065;28;20262;-65
2022/12/24 06:11:54;;;;;;;10.90;2.77;;;;;;;9.04;100.00;99724.00;5008598;28;20622;-64
2022/12/24 06:14:19;;;;;;;18.87;4.17;;;;;;;9.03;100.00;99718.97;5012436;28;20206;-64
2022/12/24 06:16:44;;;;;;;15.40;3.43;;;;;;;8.97;100.00;99712.41;5011735;28;20668;-65
2022/12/24 06:19:10;;;;;;;12.53;3.50;;;;;;;8.95;100.00;99727.06;5008839;28;20180;-65
2022/12/24 06:21:35;;;;;;;14.43;3.17;;;;;;;8.92;100.00;99724.66;5013950;28;20691;-64
2022/12/24 06:24:00;;;;;;;11.23;3.10;;;;;;;8.81;100.00;99727.78;5015246;28;20245;-66
2022/12/24 06:26:25;;;;;;;15.57;2.97;;;;;;;8.76;100.00;99728.94;5011865;28;20644;-64
2022/12/24 06:28:51;;;;;;;11.93;2.83;;;;;;;8.82;100.00;99726.03;5012054;28;20175;-64
2022/12/24 06:31:19;;;;;;;12.47;3.83;;;;;;;8.72;100.00;99726.56;4999848;28;20301;-65
2022/12/24 06:33:45;;;;;;;18.87;3.60;;;;;;;8.77;100.00;99731.44;5016371;28;20190;-65
2022/12/24 06:36:20;;;;;;;14.67;3.80;;;;;;;8.67;100.00;99722.56;5011414;28;20282;-64
2022/12/24 06:38:46;;;;;;;13.47;3.20;;;;;;;8.62;100.00;99732.22;5009496;28;20211;-65
2022/12/24 06:41:12;;;;;;;14.60;3.73;;;;;;;8.60;100.00;99732.31;5019728;28;20298;-65
2022/12/24 06:43:37;;;;;;;17.23;4.50;;;;;;;8.53;100.00;99726.69;5017986;28;20282;-65
2022/12/24 06:46:03;;;;;;;15.00;4.27;;;;;;;8.49;100.00;99732.88;5011442;28;20183;-66
2022/12/24 06:48:29;;;;;;;24.63;4.77;;;;;;;8.61;100.00;99733.13;5011782;28;20189;-66
2022/12/24 06:50:54;;;;;;;18.20;4.30;;;;;;;8.53;100.00;99736.09;5019166;28;20237;-65
2022/12/24 06:53:20;;;;;;;20.23;4.07;;;;;;;8.62;100.00;99747.63;5019475;28;20190;-66
2022/12/24 06:55:45;;;;;;;13.53;4.63;;;;;;;8.58;100.00;99757.19;5010184;28;20203;-66
2022/12/24 06:58:11;;;;;;;16.30;4.23;;;;;;;8.71;100.00;99750.53;5010359;28;20548;-66
2022/12/24 07:00:37;;;;;;;16.47;4.20;;;;;;;8.72;100.00;99762.44;4997675;28;20230;-65
2022/12/24 07:03:02;;;;;;;19.37;4.87;;;;;;;8.65;100.00;99750.03;5015348;28;20204;-64
2022/12/24 07:05:28;;;;;;;25.87;4.43;;;;;;;8.71;100.00;99763.34;5009232;28;20191;-65
2022/12/24 07:07:54;;;;;;;20.97;4.30;;;;;;;8.67;100.00;99763.59;5007252;28;20184;-65
2022/12/24 07:10:22;;;;;;;20.10;4.23;;;;;;;8.74;100.00;99770.06;4996067;28;20210;-64
2022/12/24 07:12:48;;;;;;;14.03;3.70;;;;;;;8.91;100.00;99774.31;5006696;28;20219;-62
2022/12/24 07:15:15;;;;;;;16.20;4.37;;;;;;;9.04;100.00;99775.31;5007966;28;20203;-66
2022/12/24 07:17:40;;;;;;;15.10;4.77;;;;;;;8.99;100.00;99781.59;5015091;28;20632;-65
2022/12/24 07:20:10;;;;;;;21.77;4.17;;;;;;;9.04;100.00;99777.88;5005004;28;20194;-64
2022/12/24 07:22:36;;;;;;;14.97;3.53;;;;;;;9.13;100.00;99774.00;5014051;28;20186;-65
2022/12/24 07:25:01;;;;;;;23.57;4.77;;;;;;;9.15;100.00;99787.59;5018215;28;20183;-65
2022/12/24 07:27:26;;;;;;;16.83;4.83;;;;;;;9.19;100.00;99794.19;5014603;28;20682;-65
2022/12/24 07:29:52;;;;;;;21.20;4.40;;;;;;;9.27;100.00;99801.47;5016177;28;20174;-64
2022/12/24 07:32:19;;;;;;;19.97;4.97;;;;;;;9.26;100.00;99796.44;5001002;28;20215;-65
2022/12/24 07:34:44;;;;;;;20.03;4.70;;;;;;;9.34;100.00;99799.41;5017322;28;20241;-65
2022/12/24 07:37:09;;;;;;;18.10;4.57;;;;;;;9.30;100.00;99800.47;5010802;28;20183;-65
2022/12/24 07:39:35;;;;;;;20.97;4.80;;;;;;;9.19;100.00;99819.88;5015623;28;20641;-64
2022/12/24 07:42:00;;;;;;;17.47;4.40;;;;;;;9.19;100.00;99811.31;5005818;28;20233;-64
2022/12/24 07:44:25;;;;;;;10.73;3.83;;;;;;;9.27;100.00;99818.63;5015245;28;20178;-63
2022/12/24 07:46:50;;;;;;;18.83;4.57;;;;;;;9.19;100.00;99817.28;5011304;28;20178;-63
2022/12/24 07:49:16;;;;;;;19.50;4.43;;;;;;;9.17;100.00;99825.97;5016910;28;20191;-70
2022/12/24 07:51:41;;;;;;;16.23;4.37;;;;;;;9.28;100.00;99823.66;5004194;28;20222;-69
2022/12/24 07:54:06;;;;;;;19.73;5.30;;;;;;;9.45;100.00;99819.34;5011697;28;20207;-67
2022/12/24 07:56:33;;;;;;;15.00;3.93;;;;;;;9.36;100.00;99830.94;5014008;28;20248;-69
2022/12/24 07:58:58;;;;;;;14.83;4.20;;;;;;;9.27;100.00;99836.59;5012125;28;20206;-64
2022/12/24 08:01:23;;;;;;;21.87;4.77;;;;;;;9.33;100.00;99842.22;5011856;28;20255;-65
2022/12/24 08:03:53;;;;;;;23.63;4.87;;;;;;;9.40;100.00;99837.56;5018067;28;20193;-65
2022/12/24 08:06:18;;;;;;;19.97;5.37;;;;;;;9.40;100.00;99842.69;5016571;28;20256;-64
2022/12/24 08:08:45;;;;;;;20.60;4.70;;;;;;;9.53;100.00;99846.28;5014837;28;20195;-64
2022/12/24 08:11:11;;;;;;;22.10;5.73;;;;;;;9.48;100.00;99853.41;5010348;28;20253;-64
2022/12/24 08:13:36;;;;;;;19.67;5.17;;;;;;;9.44;100.00;99857.06;5019944;28;20219;-63
2022/12/24 08:16:01;;;;;;;19.90;5.20;;;;;;;9.46;100.00;99850.06;5007058;28;20213;-65
2022/12/24 08:18:26;;;;;;;16.53;4.50;;;;;;;9.53;100.00;99856.53;5025867;28;20548;-66
2022/12/24 08:20:52;;;;;;;19.40;4.80;;;;;;;9.54;100.00;99872.78;5003985;28;20214;-62
2022/12/24 08:23:17;;;;;;;20.60;5.13;;;;;;;9.53;100.00;99864.25;5011829;28;20250;-61
2022/12/24 08:25:45;;;;;;;20.07;4.60;;;;;;;9.66;100.00;99861.00;5016215;28;20220;-62
2022/12/24 08:28:11;;;;;;;14.60;4.63;;;;;;;9.60;100.00;99864.75;5011180;28;20221;-64
2022/12/24 08:30:38;;;;;;;22.07;4.83;;;;;;;9.56;100.00;99867.56;5009084;28;20284;-64
2022/12/24 08:33:04;;;;;;;24.40;5.97;;;;;;;9.25;100.00;99871.78;5022777;28;20641;-64
2022/12/24 08:35:29;;;;;;;20.37;4.57;;;;;;;9.27;100.00;99872.53;5010696;28;20199;-64
2022/12/24 08:37:55;;;;;;;21.63;5.83;;;;;;;9.18;100.00;99877.22;5011887;28;20218;-63
2022/12/24 08:40:27;;;;;;;22.83;5.27;;;;;;;9.10;100.00;99875.97;5006445;28;20186;-65
2022/12/24 08:42:53;;;;;;;17.53;4.10;;;;;;;9.16;100.00;99881.59;5025194;28;20226;-68
2022/12/24 08:45:18;;;;;;;20.77;5.63;;;;;;;9.18;100.00;99877.22;5014098;28;20210;-69
2022/12/24 08:47:43;;;;;;;18.37;5.30;;;;;;;9.32;100.00;99886.75;5011877;28;20199;-68
2022/12/24 08:50:10;;;;;;;23.63;5.80;;;;;;;9.40;100.00;99885.53;5001312;28;20190;-63
2022/12/24 08:52:36;;;;;;;21.50;5.00;;;;;;;9.32;100.00;99891.06;5017834;28;20184;-63
2022/12/24 08:55:01;;;;;;;20.43;5.70;;;;;;;9.44;100.00;99887.88;5012505;28;20308;-63
2022/12/24 08:57:27;;;;;;;26.93;6.67;;;;;;;9.46;100.00;99885.19;5007579;28;20190;-63
2022/12/24 08:59:52;;;;;;;24.80;5.97;;;;;;;9.36;100.00;99895.13;5011526;28;20245;-63
2022/12/24 09:02:18;;;;;;;19.17;5.27;;;;;;;9.44;100.00;99897.28;4999160;28;20230;-64
2022/12/24 09:04:43;;;;;;;20.57;5.27;;;;;;;9.48;100.00;99906.50;5007021;28;20222;-64
2022/12/24 09:07:09;;;;;;;20.07;5.60;;;;;;;9.40;100.00;99900.94;5009217;28;20560;-64
2022/12/24 09:09:34;;;;;;;21.80;5.40;;;;;;;9.47;100.00;99900.53;5011098;28;20309;-65
2022/12/24 09:12:00;;;;;;;23.67;5.87;;;;;;;9.57;100.00;99911.13;5013544;28;20221;-64
2022/12/24 09:14:25;;;;;;;25.27;5.90;;;;;;;9.66;100.00;99914.94;5008856;28;20227;-63
2022/12/24 09:16:50;;;;;;;22.10;5.40;;;;;;;9.64;100.00;99919.34;5010641;28;20218;-67
2022/12/24 09:19:16;;;;;;;19.57;4.37;;;;;;;9.76;100.00;99917.84;5008408;28;20266;-68
2022/12/24 09:21:41;;;;;;;18.80;4.93;;;;;;;9.79;100.00;99921.09;4999981;28;20222;-64
2022/12/24 09:24:06;;;;;;;23.30;5.33;;;;;;;9.79;100.00;99923.66;5008130;28;20188;-64
2022/12/24 09:26:32;;;;;;;20.77;6.27;;;;;;;9.89;100.00;99933.44;5010380;28;20626;-64
2022/12/24 09:28:59;;;;;;;25.77;6.47;;;;;;;10.09;100.00;99934.91;5009204;28;20291;-65
2022/12/24 09:31:27;;;;;;;16.87;4.77;;;;;;;10.18;100.00;99921.53;5001635;28;20284;-64
2022/12/24 09:33:52;;;;;;;24.20;6.13;;;;;;;10.00;100.00;99925.97;5010618;28;20191;-64
2022/12/24 09:36:18;;;;;;;17.97;5.53;;;;;;;10.12;100.00;99932.16;5010697;28;20660;-64
2022/12/24 09:38:44;;;;;;;16.33;4.63;;;;;;;10.28;100.00;99937.28;5009061;28;20195;-65
2022/12/24 09:41:24;;;;;;;21.47;5.13;;;;;;;10.25;100.00;99940.84;4982922;28;20317;-65
2022/12/24 09:43:59;;;;;;;23.07;5.53;;;;;;;9.99;100.00;99950.00;5003147;28;20199;-63
2022/12/24 09:46:29;;;;;;;20.37;5.13;;;;;;;10.01;100.00;99938.72;5011579;28;20187;-68
2022/12/24 09:49:02;;;;;;;17.57;4.80;;;;;;;10.21;100.00;99935.97;5023224;28;20202;-71
2022/12/24 09:51:33;;;;;;;22.50;5.37;;;;;;;10.33;100.00;99945.56;5004695;28;20249;-63
2022/12/24 09:54:04;;;;;;;23.53;6.50;;;;;;;10.63;100.00;99953.34;5006160;28;20230;-64
2022/12/24 09:56:34;;;;;;;20.37;5.27;;;;;;;11.58;100.00;99945.22;5009314;28;20245;-62
2022/12/24 09:59:02;;;;;;;17.57;4.70;;;;;;;12.83;100.00;99936.50;5009216;28;20184;-64
2022/12/24 10:01:30;;;;;;;21.67;5.33;;;;;;;14.00;100.00;99933.66;4991385;28;20617;-64
2022/12/24 10:03:59;;;;;;;22.30;5.83;;;;;;;14.77;100.00;99936.75;5003933;28;20239;-65
2022/12/24 10:06:35;;;;;;;18.77;5.27;;;;;;;14.11;100.00;99947.56;4988450;28;20245;-60
2022/12/24 10:09:14;;;;;;;13.33;4.27;;;;;;;13.58;100.00;99961.56;5009436;28;20606;-61
2022/12/24 10:12:01;;;;;;;16.47;4.40;;;;;;;13.02;100.00;99967.91;5007948;28;20217;-60
2022/12/24 10:14:48;;;;;;;26.80;5.50;;;;;;;12.75;100.00;99965.38;5007875;28;20198;-66
2022/12/24 10:17:47;;;;;;;15.53;4.30;;;;;;;12.51;100.00;99975.56;5010607;28;20183;-66
2022/12/24 10:20:32;;;;;;;16.37;4.83;;;;;;;12.81;100.00;99982.22;4998915;28;20184;-65
2022/12/24 10:23:11;;;;;;;16.97;4.63;;;;;;;12.63;100.00;99977.34;5027562;28;20224;-65
2022/12/24 10:26:03;;;;;;;14.20;4.13;;;;;;;12.64;100.00;99979.00;5007176;28;20178;-66
2022/12/24 10:28:51;;;;;;;16.77;4.90;;;;;;;12.75;100.00;99973.97;5005567;28;20178;-67
2022/12/24 10:31:27;;;;;;;16.87;4.20;;;;;;;13.07;100.00;99973.59;5010975;28;20230;-67
2022/12/24 10:33:58;;;;;;;14.40;4.40;;;;;;;13.58;100.00;99971.09;5022830;28;20700;-66
2022/12/24 10:36:29;;;;;;;13.47;4.30;;;;;;;13.79;100.00;99973.94;5025400;28;20202;-66
2022/12/24 10:38:57;;;;;;;13.97;4.00;;;;;;;13.58;100.00;99979.66;5010697;28;20286;-67
2022/12/24 10:41:25;;;;;;;15.67;4.00;;;;;;;13.48;100.00;99984.66;5009756;28;20222;-67
2022/12/24 10:43:50;;;;;;;12.83;3.20;;;;;;;13.63;100.00;99997.44;5001473;28;20183;-68
2022/12/24 10:46:20;;;;;;;9.17;3.57;;;;;;;13.49;100.00;99991.44;5011536;28;20190;-67
2022/12/24 10:48:57;;;;;;;12.07;4.20;;;;;;;13.63;100.00;99990.53;5008125;28;20248;-66
2022/12/24 10:51:50;;;;;;;13.27;3.43;;;;;;;13.61;100.00;99989.78;5001491;28;20268;-67
2022/12/24 10:54:18;;;;;;;12.13;3.83;;;;;;;13.91;100.00;99990.34;5009692;28;20206;-67
2022/12/24 10:56:49;;;;;;;11.27;3.90;;;;;;;13.67;100.00;99991.97;5008168;28;20274;-66
2022/12/24 10:59:28;;;;;;;18.00;4.07;;;;;;;13.25;100.00;99981.03;5010785;28;20246;-69
2022/12/24 11:01:56;;;;;;;11.80;4.07;;;;;;;13.20;100.00;99980.50;5000041;28;20271;-68
2022/12/24 11:04:24;;;;;;;13.67;4.53;;;;;;;13.00;100.00;99984.41;5011295;28;20182;-68
2022/12/24 11:06:59;;;;;;;11.97;4.13;;;;;;;12.87;100.00;99992.16;5009507;28;20198;-68
2022/12/24 11:09:28;;;;;;;14.23;4.50;;;;;;;12.85;100.00;99986.25;5006942;28;20272;-68
2022/12/24 11:11:56;;;;;;;10.73;3.60;;;;;;;12.57;100.00;99995.81;4992829;28;20222;-68
2022/12/24 11:14:21;;;;;;;12.27;3.73;;;;;;;12.58;100.00;99998.28;5009693;28;20690;-68
2022/12/24 11:16:50;;;;;;;16.17;5.03;;;;;;;12.41;100.00;99994.19;5008040;28;20183;-67
2022/12/24 11:19:18;;;;;;;19.70;4.73;;;;;;;12.40;100.00;99991.72;5011438;28;20183;-67
2022/12/24 11:21:43;;;;;;;15.07;4.77;;;;;;;12.41;100.00;100009.66;5007920;28;20222;-67
2022/12/24 11:24:12;;;;;;;12.23;3.73;;;;;;;12.41;100.00;100006.28;5009381;28;20202;-67
2022/12/24 11:26:39;;;;;;;16.87;4.07;;;;;;;12.22;100.00;100007.44;5005044;28;20270;-67
2022/12/24 11:29:07;;;;;;;16.07;3.67;;;;;;;12.49;100.00;99998.88;5010298;28;20191;-66
2022/12/24 11:31:36;;;;;;;18.83;4.40;;;;;;;12.58;100.00;100005.19;5000293;28;20227;-66
2022/12/24 11:34:32;;;;;;;17.10;5.20;;;;;;;12.46;100.00;99996.47;5008958;28;20657;-65
2022/12/24 11:37:09;;;;;;;18.67;4.20;;;;;;;12.32;100.00;100001.72;5005149;28;20757;-65